createdAt,value
2019-01-14T00:00:09.050Z,6.57
2019-01-14T00:02:40.149Z,5.27
2019-01-14T00:05:10.509Z,5.33
2019-01-14T00:07:40.793Z,4.07
2019-01-14T00:10:11.848Z,5.77
2019-01-14T00:12:42.216Z,7.10
2019-01-14T00:15:12.963Z,7.17
2019-01-14T00:17:43.338Z,5.50
2019-01-14T00:20:13.679Z,7.90
2019-01-14T00:22:43.861Z,6.37
2019-01-14T00:25:15.078Z,4.00
2019-01-14T00:27:45.331Z,5.27
2019-01-14T00:30:17.782Z,3.90
2019-01-14T00:32:47.851Z,3.80
2019-01-14T00:35:18.023Z,5.80
2019-01-14T00:37:48.430Z,6.53
2019-01-14T00:40:18.614Z,3.60
2019-01-14T00:42:48.744Z,6.30
2019-01-14T00:45:18.843Z,6.13
2019-01-14T00:47:49.122Z,6.07
2019-01-14T00:50:19.366Z,7.40
2019-01-14T00:52:49.703Z,3.63
2019-01-14T00:55:19.804Z,5.03
2019-01-14T00:57:50.378Z,5.07
2019-01-14T01:00:23.646Z,5.13
2019-01-14T01:02:53.854Z,4.03
2019-01-14T01:05:24.168Z,3.73
2019-01-14T01:07:54.694Z,6.23
2019-01-14T01:10:24.866Z,4.77
2019-01-14T01:12:54.906Z,6.27
2019-01-14T01:15:25.045Z,3.80
2019-01-14T01:17:55.200Z,3.33
2019-01-14T01:20:26.803Z,4.43
2019-01-14T01:22:57.287Z,3.43
2019-01-14T01:25:27.303Z,2.87
2019-01-14T01:27:58.711Z,3.20
2019-01-14T01:30:28.837Z,3.97
2019-01-14T01:32:59.469Z,4.30
2019-01-14T01:35:29.636Z,4.27
2019-01-14T01:38:00.134Z,4.03
2019-01-14T01:40:30.810Z,3.53
2019-01-14T01:43:02.161Z,3.60
2019-01-14T01:45:33.237Z,2.83
2019-01-14T01:48:04.610Z,3.77
2019-01-14T01:50:34.683Z,3.70
2019-01-14T01:53:05.153Z,3.47
2019-01-14T01:55:35.684Z,3.90
2019-01-14T01:58:06.711Z,3.80
2019-01-14T02:00:37.337Z,3.33
2019-01-14T02:03:08.364Z,4.17
2019-01-14T02:05:38.425Z,4.17
2019-01-14T02:08:09.418Z,4.60
2019-01-14T02:10:39.707Z,4.63
2019-01-14T02:13:11.129Z,6.40
2019-01-14T02:15:41.221Z,4.70
2019-01-14T02:18:11.912Z,4.33
2019-01-14T02:20:42.663Z,3.70
2019-01-14T02:23:31.794Z,3.77
2019-01-14T02:26:01.895Z,5.00
2019-01-14T02:28:31.971Z,3.87
2019-01-14T02:31:02.118Z,4.03
2019-01-14T02:33:32.623Z,5.03
2019-01-14T02:36:04.035Z,4.33
2019-01-14T02:38:34.118Z,4.93
2019-01-14T02:41:04.181Z,5.50
2019-01-14T02:43:34.247Z,7.67
2019-01-14T02:46:04.542Z,4.90
2019-01-14T02:48:34.878Z,5.33
2019-01-14T02:51:05.441Z,5.73
2019-01-14T02:53:35.502Z,4.50
2019-01-14T02:56:06.153Z,7.03
2019-01-14T02:58:36.465Z,6.10
2019-01-14T03:01:06.929Z,5.50
2019-01-14T03:03:37.686Z,5.23
2019-01-14T03:06:08.100Z,7.50
2019-01-14T03:08:38.430Z,5.90
2019-01-14T03:11:09.567Z,4.07
2019-01-14T03:13:39.511Z,4.73
2019-01-14T03:16:09.507Z,5.27
2019-01-14T03:18:39.472Z,6.23
2019-01-14T03:21:15.363Z,3.53
2019-01-14T03:23:45.233Z,3.40
2019-01-14T03:26:15.306Z,3.20
2019-01-14T03:28:45.898Z,3.33
2019-01-14T03:31:16.038Z,2.83
2019-01-14T03:33:46.050Z,2.50
2019-01-14T03:36:16.201Z,2.43
2019-01-14T03:38:47.224Z,2.30
2019-01-14T03:41:17.307Z,2.30
2019-01-14T03:43:47.264Z,2.57
2019-01-14T03:46:17.271Z,1.90
2019-01-14T03:48:47.523Z,2.20
2019-01-14T03:51:18.155Z,2.20
2019-01-14T03:53:48.593Z,2.17
2019-01-14T03:56:18.715Z,2.20
2019-01-14T03:58:49.158Z,2.40
2019-01-14T04:01:20.130Z,2.20
2019-01-14T04:03:51.348Z,2.07
2019-01-14T04:06:22.566Z,2.30
2019-01-14T04:08:52.943Z,1.90
2019-01-14T04:11:23.071Z,2.20
2019-01-14T04:13:53.090Z,1.90
2019-01-14T04:16:23.228Z,2.10
2019-01-14T04:18:53.963Z,2.10
2019-01-14T04:21:24.103Z,2.10
2019-01-14T04:23:54.116Z,2.30
2019-01-14T04:26:24.156Z,2.60
2019-01-14T04:28:54.189Z,2.10
2019-01-14T04:31:24.870Z,2.60
2019-01-14T04:33:54.950Z,2.37
2019-01-14T04:36:25.250Z,2.77
2019-01-14T04:38:56.274Z,2.40
2019-01-14T04:41:26.535Z,2.43
2019-01-14T04:43:56.465Z,2.53
2019-01-14T04:46:26.553Z,2.60
2019-01-14T04:48:56.979Z,2.50
2019-01-14T04:51:28.016Z,2.27
2019-01-14T04:53:59.701Z,2.63
2019-01-14T04:56:30.605Z,3.00
2019-01-14T04:59:00.729Z,2.83
2019-01-14T05:01:30.720Z,2.50
2019-01-14T05:04:00.966Z,2.90
2019-01-14T05:06:30.867Z,2.70
2019-01-14T05:09:00.960Z,2.70
2019-01-14T05:11:31.094Z,2.60
2019-01-14T05:14:01.619Z,2.40
2019-01-14T05:16:31.620Z,2.50
2019-01-14T05:19:01.744Z,2.50
2019-01-14T05:21:31.890Z,2.60
2019-01-14T05:24:03.666Z,2.67
2019-01-14T05:26:33.756Z,2.47
2019-01-14T05:29:04.382Z,2.40
2019-01-14T05:31:35.077Z,2.30
2019-01-14T05:34:05.503Z,3.47
2019-01-14T05:36:35.421Z,2.60
2019-01-14T05:39:08.562Z,2.77
2019-01-14T05:41:39.118Z,2.50
2019-01-14T05:44:08.958Z,2.40
2019-01-14T05:46:39.072Z,2.60
2019-01-14T05:49:09.152Z,2.40
2019-01-14T05:51:39.168Z,2.50
2019-01-14T05:54:09.035Z,2.50
2019-01-14T05:56:39.803Z,2.60
2019-01-14T05:59:09.759Z,2.70
2019-01-14T06:01:40.079Z,2.70
2019-01-14T06:04:10.243Z,2.80
2019-01-14T06:06:40.341Z,3.13
2019-01-14T06:09:10.426Z,2.70
2019-01-14T06:11:40.385Z,3.00
2019-01-14T06:14:10.682Z,2.80
2019-01-14T06:16:41.098Z,2.80
2019-01-14T06:19:11.173Z,2.80
2019-01-14T06:21:42.526Z,3.43
2019-01-14T06:24:12.705Z,3.07
2019-01-14T06:26:42.964Z,2.70
2019-01-14T06:29:13.157Z,2.60
2019-01-14T06:31:43.317Z,2.83
2019-01-14T06:34:13.666Z,3.50
2019-01-14T06:36:43.722Z,4.97
2019-01-14T06:39:14.230Z,4.70
2019-01-14T06:41:45.066Z,2.80
2019-01-14T06:44:15.439Z,7.80
2019-01-14T06:46:45.751Z,3.10
2019-01-14T06:49:15.925Z,2.87
2019-01-14T06:51:46.596Z,2.80
2019-01-14T06:54:16.841Z,3.07
2019-01-14T06:56:47.050Z,3.63
2019-01-14T06:59:17.194Z,3.03
2019-01-14T07:01:47.463Z,3.60
2019-01-14T07:04:18.386Z,2.67
2019-01-14T07:06:48.467Z,2.70
2019-01-14T07:09:18.623Z,4.60
2019-01-14T07:11:48.970Z,2.83
2019-01-14T07:14:19.094Z,5.93
2019-01-14T07:16:49.819Z,3.20
2019-01-14T07:19:21.745Z,5.37
2019-01-14T07:21:52.224Z,4.80
2019-01-14T07:24:22.899Z,3.23
2019-01-14T07:26:53.263Z,3.67
2019-01-14T07:29:24.019Z,3.27
2019-01-14T07:31:54.254Z,3.70
2019-01-14T07:34:24.799Z,3.30
2019-01-14T07:36:55.432Z,3.43
2019-01-14T07:39:25.439Z,3.40
2019-01-14T07:41:55.690Z,4.03
2019-01-14T07:44:26.010Z,4.30
2019-01-14T07:46:56.822Z,4.87
2019-01-14T07:49:28.347Z,5.50
2019-01-14T07:51:58.787Z,5.43
2019-01-14T07:54:28.920Z,5.13
2019-01-14T07:56:59.830Z,4.40
2019-01-14T07:59:30.261Z,5.93
2019-01-14T08:02:00.594Z,4.00
2019-01-14T08:04:30.887Z,5.17
2019-01-14T08:07:02.367Z,4.57
2019-01-14T08:09:32.665Z,4.33
2019-01-14T08:12:03.105Z,5.53
2019-01-14T08:14:33.127Z,4.93
2019-01-14T08:17:03.824Z,4.80
2019-01-14T08:19:34.302Z,4.07
2019-01-14T08:22:05.395Z,4.57
2019-01-14T08:24:35.937Z,4.70
2019-01-14T08:27:07.622Z,4.53
2019-01-14T08:29:37.971Z,4.37
2019-01-14T08:32:08.920Z,5.90
2019-01-14T08:34:39.120Z,5.27
2019-01-14T08:37:09.345Z,3.80
2019-01-14T08:39:39.318Z,4.00
2019-01-14T08:42:10.570Z,4.10
2019-01-14T08:44:43.148Z,4.73
2019-01-14T08:47:13.477Z,4.47
2019-01-14T08:49:43.487Z,4.90
2019-01-14T08:52:14.167Z,6.67
2019-01-14T08:54:44.284Z,4.00
2019-01-14T08:57:18.223Z,5.47
2019-01-14T08:59:48.902Z,3.67
2019-01-14T09:02:22.971Z,7.13
2019-01-14T09:04:53.455Z,4.03
2019-01-14T09:07:23.872Z,3.90
2019-01-14T09:09:53.892Z,10.60
2019-01-14T09:12:24.814Z,3.77
2019-01-14T09:14:54.743Z,4.73
2019-01-14T09:17:25.343Z,8.23
2019-01-14T09:19:55.983Z,3.97
2019-01-14T09:22:28.498Z,3.53
2019-01-14T09:24:58.796Z,5.83
2019-01-14T09:27:29.545Z,4.20
2019-01-14T09:29:59.912Z,5.20
2019-01-14T09:32:30.792Z,3.13
2019-01-14T09:35:01.271Z,4.80
2019-01-14T09:37:31.981Z,8.10
2019-01-14T09:40:02.051Z,4.77
2019-01-14T09:42:32.688Z,3.97
2019-01-14T09:45:02.907Z,3.70
2019-01-14T09:47:33.793Z,6.70
2019-01-14T09:50:04.088Z,4.47
2019-01-14T09:52:34.238Z,3.23
2019-01-14T09:55:06.014Z,3.17
2019-01-14T09:57:36.907Z,6.90
2019-01-14T10:00:08.938Z,5.57
2019-01-14T10:02:39.445Z,4.27
2019-01-14T10:05:11.363Z,6.03
2019-01-14T10:07:42.644Z,6.60
2019-01-14T10:10:17.013Z,4.10
2019-01-14T10:12:47.034Z,4.53
2019-01-14T10:15:19.469Z,3.63
2019-01-14T10:17:53.250Z,4.27
2019-01-14T10:20:23.769Z,4.60
2019-01-14T10:22:54.576Z,2.70
2019-01-14T10:25:24.886Z,4.27
2019-01-14T10:27:55.266Z,4.03
2019-01-14T10:30:25.395Z,3.57
2019-01-14T10:32:56.268Z,7.37
2019-01-14T10:35:26.324Z,3.87
2019-01-14T10:37:56.650Z,4.87
2019-01-14T10:40:26.679Z,3.70
2019-01-14T10:42:56.709Z,4.57
2019-01-14T10:45:26.745Z,3.87
2019-01-14T10:47:56.599Z,5.40
2019-01-14T10:50:27.142Z,4.47
2019-01-14T10:52:57.216Z,4.30
2019-01-14T10:55:28.433Z,4.93
2019-01-14T10:57:58.475Z,6.40
2019-01-14T11:00:29.994Z,2.67
2019-01-14T11:03:00.507Z,4.73
2019-01-14T11:05:33.703Z,3.50
2019-01-14T11:08:04.273Z,2.80
2019-01-14T11:10:34.263Z,4.70
2019-01-14T11:13:04.515Z,2.40
2019-01-14T11:15:34.841Z,2.63
2019-01-14T11:18:05.219Z,2.83
2019-01-14T11:20:36.329Z,2.60
2019-01-14T11:23:06.331Z,2.70
2019-01-14T11:25:36.386Z,1.90
2019-01-14T11:28:06.450Z,1.90
2019-01-14T11:30:37.039Z,2.23
2019-01-14T11:33:07.375Z,1.73
2019-01-14T11:35:38.293Z,2.13
2019-01-14T11:38:12.346Z,2.27
2019-01-14T11:40:42.679Z,2.83
2019-01-14T11:43:12.976Z,2.50
2019-01-14T11:45:43.912Z,2.70
2019-01-14T11:48:14.339Z,2.40
2019-01-14T11:50:45.457Z,3.87
2019-01-14T11:53:15.619Z,3.03
2019-01-14T11:55:47.433Z,3.03
2019-01-14T11:58:17.418Z,3.47
2019-01-14T12:00:47.883Z,4.80
2019-01-14T12:03:18.163Z,3.27
2019-01-14T12:05:48.632Z,4.83
2019-01-14T12:08:18.730Z,2.57
2019-01-14T12:10:49.634Z,3.73
2019-01-14T12:13:20.370Z,3.70
2019-01-14T12:15:51.937Z,2.30
2019-01-14T12:18:21.894Z,2.30
2019-01-14T12:20:52.078Z,3.97
2019-01-14T12:23:22.500Z,5.17
2019-01-14T12:25:53.087Z,2.20
2019-01-14T12:28:23.223Z,8.33
2019-01-14T12:30:54.661Z,7.13
2019-01-14T12:33:24.873Z,2.67
2019-01-14T12:35:54.929Z,5.53
2019-01-14T12:38:24.948Z,3.67
2019-01-14T12:40:55.512Z,2.40
2019-01-14T12:43:25.736Z,5.73
2019-01-14T12:45:57.668Z,3.33
2019-01-14T12:48:28.118Z,2.53
2019-01-14T12:50:59.051Z,5.40
2019-01-14T12:53:30.566Z,2.20
2019-01-14T12:56:01.684Z,3.30
2019-01-14T12:58:31.979Z,3.40
2019-01-14T13:01:02.894Z,5.00
2019-01-14T13:03:32.928Z,5.50
2019-01-14T13:06:04.096Z,2.80
2019-01-14T13:08:34.501Z,5.60
2019-01-14T13:11:06.016Z,2.47
2019-01-14T13:13:36.157Z,6.90
2019-01-14T13:16:06.927Z,3.93
2019-01-14T13:18:37.264Z,5.10
2019-01-14T13:21:08.617Z,3.67
2019-01-14T13:23:38.896Z,4.90
2019-01-14T13:26:10.569Z,3.57
2019-01-14T13:28:41.043Z,4.47
2019-01-14T13:31:11.820Z,2.87
2019-01-14T13:33:41.969Z,7.00
2019-01-14T13:36:13.562Z,4.43
2019-01-14T13:38:44.509Z,5.60
2019-01-14T13:41:14.731Z,5.07
2019-01-14T13:43:44.893Z,5.83
2019-01-14T13:46:15.592Z,5.47
2019-01-14T13:48:45.981Z,3.90
2019-01-14T13:51:16.368Z,6.83
2019-01-14T13:53:47.157Z,5.00
2019-01-14T13:56:18.229Z,3.10
2019-01-14T13:58:48.433Z,3.77
2019-01-14T14:01:19.411Z,6.10
2019-01-14T14:03:49.852Z,7.60
2019-01-14T14:06:20.574Z,4.13
2019-01-14T14:08:50.751Z,4.63
2019-01-14T14:11:21.418Z,4.03
2019-01-14T14:13:52.308Z,5.10
2019-01-14T14:16:22.928Z,4.20
2019-01-14T14:18:53.384Z,3.60
2019-01-14T14:21:23.454Z,3.47
2019-01-14T14:23:53.774Z,4.97
2019-01-14T14:26:23.787Z,2.90
2019-01-14T14:28:54.047Z,3.07
2019-01-14T14:31:24.405Z,2.37
2019-01-14T14:33:55.189Z,2.53
2019-01-14T14:36:25.440Z,2.10
2019-01-14T14:38:55.887Z,4.20
2019-01-14T14:41:27.230Z,4.67
2019-01-14T14:43:57.471Z,3.33
2019-01-14T14:46:28.794Z,3.00
2019-01-14T14:48:58.897Z,4.43
2019-01-14T14:51:30.386Z,6.33
2019-01-14T14:54:00.505Z,4.00
2019-01-14T14:56:31.723Z,3.20
2019-01-14T14:59:01.846Z,3.97
2019-01-14T15:01:34.424Z,3.10
2019-01-14T15:04:04.976Z,3.57
2019-01-14T15:06:35.535Z,2.70
2019-01-14T15:09:08.476Z,3.53
2019-01-14T15:11:39.196Z,3.47
2019-01-14T15:14:09.855Z,3.23
2019-01-14T15:16:41.155Z,4.23
2019-01-14T15:19:11.347Z,4.67
2019-01-14T15:21:41.642Z,3.83
2019-01-14T15:24:12.103Z,3.23
2019-01-14T15:26:42.629Z,4.37
2019-01-14T15:29:12.560Z,4.57
2019-01-14T15:31:43.058Z,3.33
2019-01-14T15:34:13.019Z,3.23
2019-01-14T15:36:44.183Z,4.17
2019-01-14T15:39:16.290Z,3.00
2019-01-14T15:41:47.099Z,4.47
2019-01-14T15:44:17.436Z,4.40
2019-01-14T15:46:47.949Z,3.73
2019-01-14T15:49:18.072Z,4.97
2019-01-14T15:51:48.986Z,3.50
2019-01-14T15:54:19.598Z,3.20
2019-01-14T15:56:51.918Z,3.60
2019-01-14T15:59:22.417Z,3.80
2019-01-14T16:01:54.456Z,6.90
2019-01-14T16:04:25.121Z,6.17
2019-01-14T16:06:55.246Z,3.27
2019-01-14T16:09:25.814Z,3.10
2019-01-14T16:11:56.495Z,4.80
2019-01-14T16:14:26.751Z,3.93
2019-01-14T16:16:57.474Z,3.80
2019-01-14T16:19:29.022Z,5.30
2019-01-14T16:21:59.597Z,7.10
2019-01-14T16:24:30.049Z,5.17
2019-01-14T16:27:00.283Z,3.90
2019-01-14T16:29:30.520Z,5.73
2019-01-14T16:32:00.810Z,7.53
2019-01-14T16:34:31.015Z,7.03
2019-01-14T16:37:01.656Z,7.00
2019-01-14T16:39:32.072Z,7.20
2019-01-14T16:42:02.119Z,5.63
2019-01-14T16:44:32.297Z,4.93
2019-01-14T16:47:02.449Z,6.60
2019-01-14T16:49:32.781Z,5.97
2019-01-14T16:52:03.019Z,4.50
2019-01-14T16:54:33.124Z,4.33
2019-01-14T16:57:03.237Z,7.10
2019-01-14T16:59:33.536Z,9.43
2019-01-14T17:02:04.206Z,8.57
2019-01-14T17:04:34.645Z,5.50
2019-01-14T17:07:04.923Z,5.20
2019-01-14T17:09:34.891Z,8.23
2019-01-14T17:12:05.034Z,10.83
2019-01-14T17:14:35.081Z,9.00
2019-01-14T17:17:05.481Z,7.80
2019-01-14T17:19:35.773Z,18.33
2019-01-14T17:22:06.376Z,8.50
2019-01-14T17:24:36.834Z,9.20
2019-01-14T17:27:07.855Z,13.73
2019-01-14T17:29:38.183Z,5.17
2019-01-14T17:32:08.222Z,5.97
2019-01-14T17:34:38.086Z,6.77
2019-01-14T17:37:08.073Z,7.60
2019-01-14T17:39:38.223Z,7.03
2019-01-14T17:42:08.793Z,8.57
2019-01-14T17:44:38.795Z,7.37
2019-01-14T17:47:08.841Z,8.20
2019-01-14T17:49:39.028Z,5.40
2019-01-14T17:52:09.158Z,6.37
2019-01-14T17:54:39.194Z,8.80
2019-01-14T17:57:09.405Z,8.17
2019-01-14T17:59:39.725Z,5.80
2019-01-14T18:02:09.957Z,8.23
2019-01-14T18:04:39.974Z,6.60
2019-01-14T18:07:10.734Z,9.60
2019-01-14T18:09:40.786Z,6.40
2019-01-14T18:12:11.050Z,10.77
2019-01-14T18:14:41.045Z,9.53
2019-01-14T18:17:11.032Z,7.47
2019-01-14T18:19:41.281Z,5.37
2019-01-14T18:22:11.415Z,8.13
2019-01-14T18:24:41.578Z,11.57
2019-01-14T18:27:11.692Z,10.17
2019-01-14T18:29:42.064Z,6.83
2019-01-14T18:32:12.837Z,6.00
2019-01-14T18:34:43.543Z,7.03
2019-01-14T18:37:14.016Z,9.07
2019-01-14T18:39:44.187Z,8.80
2019-01-14T18:42:14.171Z,10.60
2019-01-14T18:44:44.480Z,12.03
2019-01-14T18:47:14.707Z,9.47
2019-01-14T18:49:45.514Z,9.93
2019-01-14T18:52:15.463Z,11.90
2019-01-14T18:54:45.464Z,10.27
2019-01-14T18:57:17.300Z,6.77
2019-01-14T18:59:47.646Z,6.17
2019-01-14T19:02:17.683Z,8.43
2019-01-14T19:04:48.873Z,5.80
2019-01-14T19:07:19.173Z,8.83
2019-01-14T19:09:49.515Z,7.47
2019-01-14T19:12:23.406Z,8.10
2019-01-14T19:14:54.251Z,7.67
2019-01-14T19:17:24.854Z,9.60
2019-01-14T19:19:54.882Z,10.83
2019-01-14T19:22:25.237Z,7.97
2019-01-14T19:24:55.983Z,9.17
2019-01-14T19:27:26.218Z,12.30
2019-01-14T19:29:56.446Z,10.43
2019-01-14T19:32:26.527Z,6.33
2019-01-14T19:34:56.492Z,6.33
2019-01-14T19:37:26.694Z,11.03
2019-01-14T19:39:56.593Z,7.70
2019-01-14T19:42:26.976Z,25.23
2019-01-14T19:44:57.067Z,33.07
2019-01-14T19:47:27.357Z,31.63
2019-01-14T19:49:58.214Z,15.90
2019-01-14T19:52:28.506Z,11.10
2019-01-14T19:54:58.954Z,12.27
2019-01-14T19:57:28.944Z,7.07
2019-01-14T19:59:59.042Z,9.50
2019-01-14T20:02:29.023Z,8.27
2019-01-14T20:04:59.121Z,11.30
2019-01-14T20:07:29.287Z,8.40
2019-01-14T20:09:59.188Z,11.43
2019-01-14T20:12:29.377Z,12.27
2019-01-14T20:14:59.522Z,8.80
2019-01-14T20:17:30.307Z,12.77
2019-01-14T20:20:00.663Z,13.40
2019-01-14T20:22:30.713Z,10.30
2019-01-14T20:25:01.087Z,11.73
2019-01-14T20:27:31.202Z,11.47
2019-01-14T20:30:01.301Z,9.40
2019-01-14T20:32:31.783Z,8.77
2019-01-14T20:35:02.757Z,11.90
2019-01-14T20:37:32.993Z,8.23
2019-01-14T20:40:03.780Z,9.17
2019-01-14T20:42:33.866Z,8.47
2019-01-14T20:45:06.213Z,25.47
2019-01-14T20:47:36.253Z,38.30
2019-01-14T20:50:07.871Z,50.90
2019-01-14T20:52:38.964Z,28.03
2019-01-14T20:55:09.689Z,13.37
2019-01-14T20:57:39.983Z,8.33
2019-01-14T21:00:15.911Z,8.67
2019-01-14T21:02:46.098Z,11.40
2019-01-14T21:05:17.172Z,6.37
2019-01-14T21:07:47.245Z,10.40
2019-01-14T21:10:17.904Z,8.90
2019-01-14T21:12:48.116Z,9.13
2019-01-14T21:15:18.331Z,12.00
2019-01-14T21:17:48.588Z,8.30
2019-01-14T21:20:23.559Z,8.47
2019-01-14T21:22:55.523Z,6.63
2019-01-14T21:25:25.645Z,8.23
2019-01-14T21:27:55.896Z,6.60
2019-01-14T21:30:27.159Z,7.13
2019-01-14T21:32:57.562Z,4.97
2019-01-14T21:35:27.642Z,5.17
2019-01-14T21:37:59.537Z,4.57
2019-01-14T21:40:29.652Z,4.83
2019-01-14T21:43:02.011Z,7.63
2019-01-14T21:45:32.937Z,8.27
2019-01-14T21:48:03.401Z,5.10
2019-01-14T21:50:33.591Z,6.73
2019-01-14T21:53:04.003Z,6.30
2019-01-14T21:55:34.025Z,5.50
2019-01-14T21:58:04.120Z,4.63
2019-01-14T22:00:34.558Z,6.53
2019-01-14T22:03:04.695Z,11.70
2019-01-14T22:05:35.495Z,6.43
2019-01-14T22:08:05.679Z,4.73
2019-01-14T22:10:36.434Z,7.97
2019-01-14T22:13:06.541Z,6.07
2019-01-14T22:15:37.213Z,7.67
2019-01-14T22:18:07.239Z,5.87
2019-01-14T22:20:38.220Z,4.83
2019-01-14T22:23:08.354Z,6.90
2019-01-14T22:25:41.242Z,5.20
2019-01-14T22:28:11.215Z,8.77
2019-01-14T22:30:41.670Z,8.80
2019-01-14T22:33:11.650Z,6.37
2019-01-14T22:35:42.114Z,6.23
2019-01-14T22:38:12.316Z,7.33
2019-01-14T22:40:42.576Z,5.33
2019-01-14T22:43:12.582Z,6.13
2019-01-14T22:45:43.282Z,6.93
2019-01-14T22:48:13.629Z,9.77
2019-01-14T22:50:45.292Z,11.60
2019-01-14T22:53:15.775Z,7.87
2019-01-14T22:55:49.829Z,6.67
2019-01-14T22:58:20.018Z,8.80
2019-01-14T23:01:14.057Z,11.23
2019-01-14T23:03:49.366Z,5.50
2019-01-14T23:06:19.379Z,9.77
2019-01-14T23:08:50.223Z,12.77
2019-01-14T23:11:20.553Z,5.60
2019-01-14T23:13:50.671Z,8.60
2019-01-14T23:16:20.772Z,9.07
2019-01-14T23:18:50.868Z,5.70
2019-01-14T23:21:20.965Z,7.57
2019-01-14T23:23:51.114Z,9.73
2019-01-14T23:26:21.118Z,6.70
2019-01-14T23:28:51.269Z,7.53
2019-01-14T23:31:21.241Z,8.13
2019-01-14T23:33:51.658Z,11.73
2019-01-14T23:36:21.723Z,12.70
2019-01-14T23:38:51.958Z,10.30
2019-01-14T23:41:22.134Z,8.50
2019-01-14T23:43:52.641Z,12.97
2019-01-14T23:46:23.381Z,10.60
2019-01-14T23:48:53.494Z,11.93
2019-01-14T23:51:23.608Z,9.30
2019-01-14T23:53:53.840Z,9.57
2019-01-14T23:56:24.028Z,7.60
2019-01-14T23:58:54.091Z,9.70
